createdAt,value
2023-03-18T00:00:00.691Z,17.77
2023-03-18T00:03:03.087Z,16.83
2023-03-18T00:06:09.654Z,16.27
2023-03-18T00:09:13.500Z,15.57
2023-03-18T00:12:15.487Z,16.10
2023-03-18T00:15:18.965Z,15.97
2023-03-18T00:18:20.935Z,16.80
2023-03-18T00:21:23.631Z,16.90
2023-03-18T00:24:27.844Z,15.87
2023-03-18T00:27:31.622Z,15.73
2023-03-18T00:30:37.379Z,16.17
2023-03-18T00:33:41.174Z,15.20
2023-03-18T00:36:45.671Z,15.40
2023-03-18T00:39:48.046Z,15.73
2023-03-18T00:42:57.577Z,16.03
2023-03-18T00:46:00.590Z,15.47
2023-03-18T00:49:06.312Z,16.07
2023-03-18T00:52:08.666Z,16.03
2023-03-18T00:55:11.071Z,17.60
2023-03-18T00:58:13.635Z,15.17
2023-03-18T01:01:17.862Z,15.37
2023-03-18T01:04:21.532Z,15.57
2023-03-18T01:07:24.228Z,15.77
2023-03-18T01:10:27.243Z,14.63
2023-03-18T01:13:30.135Z,16.60
2023-03-18T01:16:32.619Z,14.60
2023-03-18T01:19:35.861Z,14.80
2023-03-18T01:22:41.364Z,15.40
2023-03-18T01:25:44.671Z,16.23
2023-03-18T01:28:48.050Z,15.50
2023-03-18T01:31:51.405Z,15.40
2023-03-18T01:34:53.736Z,15.13
2023-03-18T01:37:55.742Z,14.50
2023-03-18T01:40:59.643Z,16.33
2023-03-18T01:44:02.214Z,15.97
2023-03-18T01:47:04.585Z,15.47
2023-03-18T01:50:06.832Z,14.80
2023-03-18T01:53:13.856Z,15.27
2023-03-18T01:56:17.964Z,14.50
2023-03-18T01:59:22.537Z,15.00
2023-03-18T02:02:26.136Z,14.50
2023-03-18T02:05:29.696Z,15.23
2023-03-18T02:08:31.693Z,14.90
2023-03-18T02:11:38.473Z,15.07
2023-03-18T02:14:41.059Z,14.70
2023-03-18T02:17:49.501Z,14.23
2023-03-18T02:21:03.607Z,13.83
2023-03-18T02:24:18.058Z,14.27
2023-03-18T02:27:25.699Z,14.60
2023-03-18T02:30:33.913Z,15.27
2023-03-18T02:33:39.651Z,14.53
2023-03-18T02:36:42.656Z,13.83
2023-03-18T02:39:44.734Z,15.00
2023-03-18T02:42:48.077Z,14.43
2023-03-18T02:46:08.237Z,13.77
2023-03-18T02:49:11.019Z,14.70
2023-03-18T02:52:13.102Z,15.07
2023-03-18T02:55:15.667Z,14.43
2023-03-18T02:58:17.968Z,13.93
2023-03-18T03:01:20.702Z,14.20
2023-03-18T03:04:25.622Z,13.70
2023-03-18T03:07:28.402Z,13.53
2023-03-18T03:10:30.897Z,14.60
2023-03-18T03:13:33.615Z,14.13
2023-03-18T03:16:39.535Z,14.17
2023-03-18T03:19:41.926Z,13.20
2023-03-18T03:22:44.755Z,13.93
2023-03-18T03:25:47.152Z,13.50
2023-03-18T03:28:49.305Z,13.03
2023-03-18T03:31:51.787Z,13.93
2023-03-18T03:34:53.789Z,14.00
2023-03-18T03:37:56.888Z,13.63
2023-03-18T03:40:59.018Z,13.60
2023-03-18T03:44:01.387Z,13.47
2023-03-18T03:47:04.058Z,13.67
2023-03-18T03:50:06.912Z,13.90
2023-03-18T03:53:10.474Z,12.90
2023-03-18T03:56:12.851Z,13.83
2023-03-18T03:59:14.983Z,14.67
2023-03-18T04:02:18.048Z,13.70
2023-03-18T04:05:24.141Z,13.60
2023-03-18T04:08:27.097Z,13.37
2023-03-18T04:11:29.849Z,13.87
2023-03-18T04:14:32.086Z,12.87
2023-03-18T04:17:35.105Z,12.73
2023-03-18T04:20:38.788Z,13.30
2023-03-18T04:23:41.034Z,13.03
2023-03-18T04:26:43.748Z,13.37
2023-03-18T04:29:46.623Z,12.87
2023-03-18T04:32:50.447Z,12.63
2023-03-18T04:35:53.489Z,13.03
2023-03-18T04:38:57.005Z,12.63
2023-03-18T04:41:59.018Z,12.57
2023-03-18T04:45:02.193Z,13.47
2023-03-18T04:48:04.418Z,13.07
2023-03-18T04:51:08.481Z,13.00
2023-03-18T04:54:12.338Z,12.67
2023-03-18T04:57:14.926Z,13.10
2023-03-18T05:00:21.496Z,12.60
2023-03-18T05:03:23.891Z,12.73
2023-03-18T05:06:29.075Z,13.40
2023-03-18T05:09:31.538Z,12.90
2023-03-18T05:12:34.252Z,12.50
2023-03-18T05:15:37.597Z,12.87
2023-03-18T05:18:41.174Z,12.37
2023-03-18T05:21:43.476Z,13.13
2023-03-18T05:24:46.171Z,12.63
2023-03-18T05:27:49.558Z,12.53
2023-03-18T05:30:52.367Z,13.10
2023-03-18T05:33:54.855Z,12.03
2023-03-18T05:36:57.759Z,11.83
2023-03-18T05:40:00.124Z,12.13
2023-03-18T05:43:04.191Z,11.57
2023-03-18T05:46:06.687Z,12.10
2023-03-18T05:49:08.910Z,12.90
2023-03-18T05:52:11.378Z,11.83
2023-03-18T05:55:15.053Z,11.70
2023-03-18T05:58:18.406Z,13.27
2023-03-18T06:01:20.483Z,12.03
2023-03-18T06:04:22.831Z,11.93
2023-03-18T06:07:24.903Z,12.80
2023-03-18T06:10:27.907Z,12.47
2023-03-18T06:13:30.837Z,12.13
2023-03-18T06:16:35.274Z,11.47
2023-03-18T06:19:38.127Z,12.10
2023-03-18T06:22:41.108Z,11.77
2023-03-18T06:25:43.254Z,12.07
2023-03-18T06:28:46.151Z,11.60
2023-03-18T06:31:48.118Z,11.20
2023-03-18T06:34:50.626Z,11.80
2023-03-18T06:37:53.191Z,11.73
2023-03-18T06:40:56.786Z,11.80
2023-03-18T06:43:59.172Z,11.53
2023-03-18T06:47:01.715Z,10.87
2023-03-18T06:50:03.862Z,11.37
2023-03-18T06:53:06.944Z,10.93
2023-03-18T06:56:09.952Z,10.90
2023-03-18T06:59:12.278Z,10.17
2023-03-18T07:02:15.403Z,10.43
2023-03-18T07:05:18.699Z,10.33
2023-03-18T07:08:21.039Z,10.23
2023-03-18T07:11:23.515Z,10.00
2023-03-18T07:14:28.395Z,9.60
2023-03-18T07:17:30.944Z,9.93
2023-03-18T07:20:34.377Z,9.50
2023-03-18T07:23:36.877Z,11.53
2023-03-18T07:26:39.237Z,10.17
2023-03-18T07:29:41.857Z,8.17
2023-03-18T07:32:45.921Z,8.67
2023-03-18T07:36:04.630Z,9.00
2023-03-18T07:39:10.168Z,8.60
2023-03-18T07:42:12.681Z,8.87
2023-03-18T07:45:14.715Z,8.23
2023-03-18T07:48:17.083Z,7.67
2023-03-18T07:51:19.202Z,7.43
2023-03-18T07:54:21.549Z,7.70
2023-03-18T07:57:24.157Z,7.40
2023-03-18T08:00:27.238Z,7.32
2023-03-18T08:03:29.323Z,7.40
2023-03-18T08:06:32.941Z,6.88
2023-03-18T08:09:35.025Z,6.13
2023-03-18T08:12:51.285Z,6.83
2023-03-18T08:15:56.230Z,6.70
2023-03-18T08:18:58.901Z,6.93
2023-03-18T08:22:01.321Z,9.60
2023-03-18T08:25:04.452Z,6.23
2023-03-18T08:28:07.668Z,6.90
2023-03-18T08:31:10.079Z,7.10
2023-03-18T08:34:12.274Z,7.33
2023-03-18T08:37:14.659Z,6.80
2023-03-18T08:40:16.741Z,6.57
2023-03-18T08:43:22.261Z,7.33
2023-03-18T08:46:24.614Z,7.20
2023-03-18T08:49:26.992Z,7.60
2023-03-18T08:52:28.978Z,7.50
2023-03-18T08:55:34.719Z,6.60
2023-03-18T08:58:36.981Z,7.18
2023-03-18T09:01:39.916Z,6.90
2023-03-18T09:04:42.043Z,6.40
2023-03-18T09:07:45.508Z,6.50
2023-03-18T09:10:48.052Z,7.25
2023-03-18T09:13:50.798Z,7.10
2023-03-18T09:16:53.968Z,7.20
2023-03-18T09:19:56.526Z,7.13
2023-03-18T09:22:59.330Z,6.35
2023-03-18T09:26:02.214Z,7.07
2023-03-18T09:29:04.305Z,6.20
2023-03-18T09:32:06.836Z,6.20
2023-03-18T09:35:12.564Z,7.13
2023-03-18T09:38:20.836Z,7.60
2023-03-18T09:41:48.267Z,8.00
2023-03-18T09:44:58.380Z,7.15
2023-03-18T09:48:28.733Z,6.27
2023-03-18T09:52:01.296Z,7.30
2023-03-18T09:55:23.371Z,6.80
2023-03-18T09:58:40.347Z,8.48
2023-03-18T10:01:44.272Z,7.38
2023-03-18T10:04:53.481Z,7.18
2023-03-18T10:07:59.431Z,6.80
2023-03-18T10:11:10.058Z,7.40
2023-03-18T10:14:27.257Z,7.80
2023-03-18T10:17:41.898Z,7.82
2023-03-18T10:21:08.299Z,9.02
2023-03-18T10:24:35.176Z,9.20
2023-03-18T10:27:53.830Z,7.18
2023-03-18T10:31:38.707Z,6.68
2023-03-18T10:35:21.812Z,6.47
2023-03-18T10:38:59.204Z,6.65
2023-03-18T10:42:47.159Z,7.28
2023-03-18T10:45:57.873Z,6.93
2023-03-18T10:49:23.948Z,7.40
2023-03-18T10:52:41.601Z,7.65
2023-03-18T10:56:06.566Z,7.38
2023-03-18T10:59:22.507Z,7.07
2023-03-18T11:02:42.389Z,7.10
2023-03-18T11:05:53.161Z,6.75
2023-03-18T11:09:34.176Z,8.00
2023-03-18T11:12:36.438Z,6.75
2023-03-18T11:15:44.669Z,7.22
2023-03-18T11:18:49.099Z,6.45
2023-03-18T11:22:10.167Z,7.88
2023-03-18T11:25:18.216Z,8.70
2023-03-18T11:28:23.511Z,8.50
2023-03-18T11:31:25.893Z,8.20
2023-03-18T11:34:30.620Z,7.93
2023-03-18T11:37:37.322Z,8.18
2023-03-18T11:40:40.256Z,7.93
2023-03-18T11:48:19.958Z,7.82
2023-03-18T11:51:24.649Z,7.97
2023-03-18T11:54:31.805Z,8.60
2023-03-18T11:57:33.720Z,7.68
2023-03-18T12:00:50.626Z,8.73
2023-03-18T12:04:10.448Z,11.00
2023-03-18T12:07:55.751Z,11.55
2023-03-18T12:11:09.999Z,8.02
2023-03-18T12:14:25.840Z,8.65
2023-03-18T12:17:44.179Z,9.25
2023-03-18T12:20:52.576Z,9.00
2023-03-18T12:24:05.502Z,8.32
2023-03-18T12:27:22.700Z,8.60
2023-03-18T12:30:34.151Z,9.57
2023-03-18T12:33:51.446Z,8.50
2023-03-18T12:37:08.586Z,9.52
2023-03-18T12:40:30.877Z,8.80
2023-03-18T12:43:47.932Z,9.27
2023-03-18T12:46:59.980Z,10.43
2023-03-18T12:50:27.862Z,10.20
2023-03-18T12:53:35.370Z,8.75
2023-03-18T12:56:44.292Z,9.40
2023-03-18T12:59:56.753Z,9.05
2023-03-18T13:03:11.368Z,9.02
2023-03-18T13:06:20.298Z,8.80
2023-03-18T13:09:31.783Z,7.82
2023-03-18T13:12:38.589Z,8.25
2023-03-18T13:15:49.462Z,8.23
2023-03-18T13:18:56.161Z,9.15
2023-03-18T13:22:27.191Z,7.90
2023-03-18T13:25:59.260Z,8.88
2023-03-18T13:29:22.929Z,9.52
2023-03-18T13:33:00.854Z,9.75
2023-03-18T13:36:40.475Z,9.38
2023-03-18T13:40:03.897Z,8.65
2023-03-18T13:43:11.135Z,9.18
2023-03-18T13:46:23.702Z,9.05
2023-03-18T13:49:30.308Z,8.50
2023-03-18T13:52:44.117Z,9.75
2023-03-18T13:55:53.633Z,10.10
2023-03-18T13:58:56.207Z,8.88
2023-03-18T14:02:18.134Z,8.65
2023-03-18T14:05:33.934Z,9.27
2023-03-18T14:08:44.625Z,8.43
2023-03-18T14:11:47.847Z,9.65
2023-03-18T14:14:56.764Z,10.02
2023-03-18T14:18:20.300Z,13.60
2023-03-18T14:22:35.085Z,12.27
2023-03-18T14:25:42.193Z,8.68
2023-03-18T14:29:10.769Z,9.13
2023-03-18T14:32:34.121Z,8.85
2023-03-18T14:35:49.807Z,8.57
2023-03-18T14:39:19.964Z,9.07
2023-03-18T14:42:52.739Z,8.65
2023-03-18T14:46:01.839Z,9.57
2023-03-18T14:49:28.748Z,8.35
2023-03-18T14:52:35.535Z,8.85
2023-03-18T14:55:38.307Z,8.63
2023-03-18T14:58:40.937Z,9.63
2023-03-18T15:01:46.769Z,11.23
2023-03-18T15:04:58.100Z,9.60
2023-03-18T15:08:00.434Z,9.73
2023-03-18T15:11:06.049Z,9.13
2023-03-18T15:14:27.811Z,8.23
2023-03-18T15:17:30.495Z,8.38
2023-03-18T15:20:36.276Z,8.02
2023-03-18T15:23:48.266Z,8.43
2023-03-18T15:27:07.068Z,8.18
2023-03-18T15:30:50.112Z,8.82
2023-03-18T15:34:20.967Z,8.43
2023-03-18T15:37:34.481Z,8.55
2023-03-18T15:40:47.485Z,8.95
2023-03-18T15:44:13.612Z,9.52
2023-03-18T15:47:52.492Z,9.10
2023-03-18T15:51:00.749Z,8.95
2023-03-18T15:54:29.543Z,8.48
2023-03-18T15:57:38.946Z,8.88
2023-03-18T16:00:41.715Z,8.77
2023-03-18T16:03:47.952Z,10.90
2023-03-18T16:06:52.464Z,9.70
2023-03-18T16:09:54.794Z,9.75
2023-03-18T16:13:01.948Z,9.13
2023-03-18T16:16:08.322Z,8.77
2023-03-18T16:19:30.977Z,8.50
2023-03-18T16:22:34.184Z,10.30
2023-03-18T16:25:36.200Z,13.95
2023-03-18T16:28:39.469Z,17.88
2023-03-18T16:31:44.020Z,21.13
2023-03-18T16:34:46.984Z,23.42
2023-03-18T16:37:49.546Z,27.58
2023-03-18T16:40:54.735Z,20.63
2023-03-18T16:43:56.966Z,22.15
2023-03-18T16:46:59.365Z,21.17
2023-03-18T16:50:01.390Z,26.27
2023-03-18T16:53:13.731Z,24.38
2023-03-18T16:56:18.358Z,24.60
2023-03-18T16:59:20.718Z,26.98
2023-03-18T17:02:35.252Z,31.90
2023-03-18T17:05:37.789Z,33.87
2023-03-18T17:08:40.139Z,29.80
2023-03-18T17:11:43.455Z,30.17
2023-03-18T17:14:55.385Z,25.85
2023-03-18T17:18:00.721Z,26.73
2023-03-18T17:21:05.390Z,25.50
2023-03-18T17:24:08.007Z,24.83
2023-03-18T17:27:16.082Z,21.53
2023-03-18T17:30:24.088Z,20.93
2023-03-18T17:33:30.995Z,18.67
2023-03-18T17:36:33.413Z,17.40
2023-03-18T17:39:36.561Z,14.77
2023-03-18T17:42:41.163Z,18.57
2023-03-18T17:45:43.174Z,17.43
2023-03-18T17:48:46.268Z,19.47
2023-03-18T17:51:48.999Z,19.73
2023-03-18T17:54:51.841Z,17.60
2023-03-18T17:57:53.921Z,16.87
2023-03-18T18:01:15.440Z,17.93
2023-03-18T18:04:20.623Z,14.43
2023-03-18T18:07:23.644Z,13.30
2023-03-18T18:10:26.001Z,14.97
2023-03-18T18:13:29.189Z,16.57
2023-03-18T18:16:31.323Z,16.87
2023-03-18T18:19:33.790Z,24.20
2023-03-18T18:22:44.500Z,23.70
2023-03-18T18:25:46.761Z,21.07
2023-03-18T18:28:51.348Z,21.00
2023-03-18T18:31:54.082Z,18.03
2023-03-18T18:34:56.874Z,18.13
2023-03-18T18:37:59.351Z,17.23
2023-03-18T18:41:07.884Z,17.23
2023-03-18T18:44:10.304Z,16.20
2023-03-18T18:47:21.729Z,17.03
2023-03-18T18:50:29.960Z,16.30
2023-03-18T18:53:36.556Z,15.33
2023-03-18T18:56:38.878Z,15.80
2023-03-18T18:59:40.928Z,15.00
2023-03-18T19:02:43.977Z,17.50
2023-03-18T19:05:49.148Z,16.00
2023-03-18T19:08:52.504Z,17.90
2023-03-18T19:11:56.442Z,18.27
2023-03-18T19:14:59.798Z,18.30
2023-03-18T19:18:02.030Z,18.50
2023-03-18T19:21:04.865Z,18.03
2023-03-18T19:24:31.501Z,19.80
2023-03-18T19:27:34.038Z,23.67
2023-03-18T19:30:36.272Z,19.90
2023-03-18T19:33:39.683Z,23.03
2023-03-18T19:36:44.408Z,24.77
2023-03-18T19:39:49.432Z,24.43
2023-03-18T19:42:51.510Z,22.03
2023-03-18T19:45:53.886Z,30.80
2023-03-18T19:48:56.069Z,27.57
2023-03-18T19:51:58.508Z,26.43
2023-03-18T19:55:04.516Z,24.67
2023-03-18T19:58:07.700Z,24.50
2023-03-18T20:01:09.738Z,21.93
2023-03-18T20:04:15.814Z,20.87
2023-03-18T20:07:20.233Z,22.30
2023-03-18T20:10:22.929Z,21.83
2023-03-18T20:13:25.044Z,21.37
2023-03-18T20:16:33.461Z,20.90
2023-03-18T20:19:37.129Z,21.53
2023-03-18T20:22:42.489Z,21.13
2023-03-18T20:25:46.478Z,22.00
2023-03-18T20:28:53.791Z,21.30
2023-03-18T20:31:56.644Z,22.27
2023-03-18T20:34:59.321Z,24.10
2023-03-18T20:38:17.466Z,27.30
2023-03-18T20:41:20.215Z,53.80
2023-03-18T20:44:22.281Z,36.73
2023-03-18T20:47:24.571Z,43.57
2023-03-18T20:50:31.166Z,40.37
2023-03-18T20:53:33.520Z,37.33
2023-03-18T20:56:35.983Z,37.60
2023-03-18T20:59:38.292Z,38.97
2023-03-18T21:02:41.688Z,35.90
2023-03-18T21:05:43.983Z,32.10
2023-03-18T21:08:46.006Z,38.13
2023-03-18T21:11:48.837Z,25.60
2023-03-18T21:14:51.142Z,27.93
2023-03-18T21:17:54.107Z,24.77
2023-03-18T21:20:57.027Z,25.87
2023-03-18T21:23:59.379Z,23.93
2023-03-18T21:27:05.181Z,25.43
2023-03-18T21:30:09.963Z,25.80
2023-03-18T21:33:26.241Z,26.73
2023-03-18T21:36:29.258Z,28.67
2023-03-18T21:39:32.255Z,29.33
2023-03-18T21:42:35.449Z,29.20
2023-03-18T21:45:37.774Z,28.37
2023-03-18T21:48:40.504Z,25.50
2023-03-18T21:51:43.177Z,26.10
2023-03-18T21:54:46.848Z,25.53
2023-03-18T21:57:49.624Z,24.93
2023-03-18T22:00:56.466Z,24.10
2023-03-18T22:03:58.886Z,23.87
2023-03-18T22:07:01.725Z,24.40
2023-03-18T22:10:06.219Z,25.70
2023-03-18T22:13:17.540Z,24.30
2023-03-18T22:16:21.104Z,25.57
2023-03-18T22:19:24.358Z,29.07
2023-03-18T22:22:35.228Z,28.23
2023-03-18T22:25:37.615Z,28.93
2023-03-18T22:28:40.812Z,27.83
2023-03-18T22:31:43.154Z,25.37
2023-03-18T22:34:45.247Z,26.00
2023-03-18T22:37:48.033Z,25.27
2023-03-18T22:40:52.909Z,25.87
2023-03-18T22:43:55.778Z,26.83
2023-03-18T22:46:57.810Z,26.63
2023-03-18T22:50:00.262Z,26.00
2023-03-18T22:53:05.981Z,25.30
2023-03-18T22:56:14.296Z,25.40
2023-03-18T22:59:16.258Z,24.13
2023-03-18T23:02:25.156Z,23.80
2023-03-18T23:05:27.294Z,24.93
2023-03-18T23:08:29.992Z,25.27
2023-03-18T23:11:32.124Z,25.00
2023-03-18T23:14:34.341Z,24.43
2023-03-18T23:17:36.360Z,24.67
2023-03-18T23:20:38.642Z,24.23
2023-03-18T23:23:41.177Z,25.33
2023-03-18T23:26:43.461Z,25.57
2023-03-18T23:29:45.947Z,25.90
2023-03-18T23:32:48.237Z,25.83
2023-03-18T23:35:50.294Z,25.10
2023-03-18T23:38:52.620Z,25.67
2023-03-18T23:41:54.626Z,24.93
2023-03-18T23:44:57.007Z,26.00
2023-03-18T23:47:59.052Z,25.17
2023-03-18T23:51:04.168Z,27.07
2023-03-18T23:54:06.724Z,26.47
2023-03-18T23:57:10.760Z,27.73
